createdAt,value
2019-02-17T00:05:33.770Z,99.90
2019-02-17T00:15:35.179Z,99.90
2019-02-17T00:25:37.277Z,99.90
2019-02-17T00:35:38.574Z,99.90
2019-02-17T00:45:40.015Z,99.90
2019-02-17T00:55:42.307Z,99.90
2019-02-17T01:05:44.403Z,99.90
2019-02-17T01:15:45.750Z,99.90
2019-02-17T01:25:47.016Z,99.90
2019-02-17T01:35:48.316Z,99.90
2019-02-17T01:45:49.789Z,99.90
2019-02-17T01:55:51.089Z,99.90
2019-02-17T02:05:52.365Z,99.90
2019-02-17T02:15:53.652Z,99.90
2019-02-17T02:25:54.940Z,99.90
2019-02-17T02:35:56.254Z,99.90
2019-02-17T02:45:57.549Z,99.90
2019-02-17T02:55:58.857Z,99.90
2019-02-17T03:06:00.135Z,99.90
2019-02-17T03:16:01.435Z,99.90
2019-02-17T03:26:02.685Z,99.90
2019-02-17T03:36:03.960Z,99.90
2019-02-17T03:46:05.229Z,99.90
2019-02-17T07:01:06.540Z,99.90
2019-02-17T07:11:07.801Z,99.90
2019-02-17T07:21:09.072Z,99.90
2019-02-17T07:31:10.349Z,99.90
2019-02-17T07:41:11.626Z,93.20
2019-02-17T07:51:12.901Z,74.70
2019-02-17T08:01:14.140Z,60.80
2019-02-17T08:11:15.557Z,50.30
2019-02-17T08:21:16.807Z,48.40
2019-02-17T08:31:18.081Z,46.90
2019-02-17T08:41:20.116Z,40.60
2019-02-17T08:51:21.380Z,40.60
2019-02-17T09:01:23.418Z,32.70
2019-02-17T09:11:24.699Z,32.60
2019-02-17T09:21:25.981Z,29.30
2019-02-17T09:31:28.027Z,25.10
2019-02-17T09:41:29.310Z,25.10
2019-02-17T09:51:30.556Z,25.60
2019-02-17T10:01:31.812Z,26.60
2019-02-17T10:11:33.060Z,27.30
2019-02-17T10:21:34.400Z,23.50
2019-02-17T10:31:36.401Z,27.40
2019-02-17T10:41:37.691Z,27.40
2019-02-17T10:51:39.736Z,28.30
2019-02-17T11:01:41.031Z,28.20
2019-02-17T11:11:42.317Z,27.70
2019-02-17T11:21:43.596Z,30.00
2019-02-17T11:31:45.633Z,33.40
2019-02-17T11:41:46.962Z,33.40
2019-02-17T11:51:48.244Z,33.30
2019-02-17T12:01:49.519Z,34.10
2019-02-17T12:11:50.769Z,32.40
2019-02-17T12:32:02.367Z,32.20
2019-02-17T12:42:03.628Z,30.80
2019-02-17T12:52:04.886Z,30.30
2019-02-17T13:02:07.024Z,31.40
2019-02-17T13:12:08.305Z,31.40
2019-02-17T13:22:09.584Z,32.60
2019-02-17T13:32:11.620Z,32.50
2019-02-17T13:42:12.897Z,32.50
2019-02-17T13:52:15.088Z,35.30
2019-02-17T14:02:16.357Z,35.20
2019-02-17T14:12:17.640Z,34.90
2019-02-17T14:22:18.919Z,34.40
2019-02-17T14:32:20.169Z,32.60
2019-02-17T14:42:21.453Z,32.50
2019-02-17T14:52:22.743Z,33.20
2019-02-17T15:02:24.008Z,33.20
2019-02-17T15:12:25.265Z,33.40
2019-02-17T15:22:27.311Z,35.60
2019-02-17T15:32:28.578Z,35.50
2019-02-17T15:42:30.601Z,37.70
2019-02-17T15:52:32.640Z,39.30
2019-02-17T16:02:33.920Z,39.20
2019-02-17T16:12:43.689Z,45.00
2019-02-17T16:22:44.964Z,46.30
2019-02-17T16:32:46.245Z,48.90
2019-02-17T16:42:47.528Z,52.20
2019-02-17T16:52:48.818Z,53.10
2019-02-17T17:02:50.073Z,54.10
2019-02-17T17:12:52.113Z,58.40
2019-02-17T17:22:53.358Z,58.30
2019-02-17T17:32:54.612Z,75.60
2019-02-17T17:42:55.853Z,89.30
2019-02-17T17:52:57.128Z,99.90
2019-02-17T18:02:58.396Z,99.90
2019-02-17T18:12:59.672Z,99.90
2019-02-17T18:23:01.724Z,99.90
2019-02-17T18:33:02.997Z,99.90
2019-02-17T18:43:04.269Z,99.90
2019-02-17T18:53:08.434Z,99.90
2019-02-17T19:13:18.821Z,99.90
2019-02-17T19:23:20.844Z,99.90
2019-02-17T19:33:26.407Z,99.90
2019-02-17T19:43:27.696Z,99.90
2019-02-17T19:53:28.964Z,99.90
2019-02-17T20:03:30.260Z,99.90
2019-02-17T20:13:31.561Z,99.90
2019-02-17T20:23:32.934Z,99.90
2019-02-17T20:33:34.164Z,99.90
2019-02-17T20:43:36.552Z,99.90
2019-02-17T20:53:37.841Z,99.90
2019-02-17T21:03:39.119Z,99.90
2019-02-17T21:13:40.447Z,99.90
2019-02-17T21:23:41.755Z,99.90
2019-02-17T21:33:42.997Z,99.90
2019-02-17T21:43:45.017Z,99.90
2019-02-17T21:53:46.288Z,99.90
2019-02-17T22:03:47.577Z,99.90
2019-02-17T22:13:49.013Z,99.90
2019-02-17T22:23:51.181Z,99.90
2019-02-17T22:33:52.505Z,99.90
2019-02-17T22:43:53.782Z,99.90
2019-02-17T22:53:55.241Z,99.90
2019-02-17T23:03:56.524Z,99.90
2019-02-17T23:13:57.824Z,99.90
2019-02-17T23:23:59.104Z,99.90
2019-02-17T23:34:00.380Z,99.90
2019-02-17T23:44:01.641Z,99.90
2019-02-17T23:54:02.923Z,99.90
